createdAt,value
2018-10-01T00:02:21.822Z,4.60
2018-10-01T00:04:50.209Z,4.43
2018-10-01T00:07:18.342Z,3.90
2018-10-01T00:09:46.558Z,4.47
2018-10-01T00:12:14.801Z,4.07
2018-10-01T00:14:42.976Z,4.07
2018-10-01T00:17:11.075Z,4.10
2018-10-01T00:19:44.860Z,4.10
2018-10-01T00:22:18.649Z,4.20
2018-10-01T00:24:46.779Z,4.10
2018-10-01T00:27:15.026Z,3.70
2018-10-01T00:29:44.017Z,3.80
2018-10-01T00:32:12.141Z,4.10
2018-10-01T00:34:40.293Z,4.00
2018-10-01T00:37:08.344Z,4.00
2018-10-01T00:39:36.521Z,4.00
2018-10-01T00:42:04.656Z,4.10
2018-10-01T00:44:32.774Z,4.23
2018-10-01T00:47:00.984Z,3.80
2018-10-01T00:49:29.045Z,4.10
2018-10-01T00:51:57.145Z,4.20
2018-10-01T00:54:25.383Z,4.33
2018-10-01T00:56:54.207Z,3.93
2018-10-01T00:59:22.530Z,3.93
2018-10-01T01:01:50.667Z,3.97
2018-10-01T01:04:18.818Z,4.27
2018-10-01T01:06:47.361Z,4.80
2018-10-01T01:09:15.601Z,4.27
2018-10-01T01:11:43.811Z,4.60
2018-10-01T01:14:12.031Z,4.50
2018-10-01T01:16:40.252Z,4.37
2018-10-01T01:19:08.576Z,4.30
2018-10-01T01:21:36.750Z,3.73
2018-10-01T01:24:05.090Z,3.90
2018-10-01T01:26:33.848Z,4.03
2018-10-01T01:29:02.059Z,4.27
2018-10-01T01:31:30.310Z,3.80
2018-10-01T01:33:58.378Z,3.93
2018-10-01T01:36:26.719Z,4.03
2018-10-01T01:38:55.119Z,4.20
2018-10-01T01:41:23.260Z,3.83
2018-10-01T01:43:51.304Z,3.97
2018-10-01T01:46:19.544Z,3.80
2018-10-01T01:48:47.785Z,4.10
2018-10-01T01:51:15.956Z,3.43
2018-10-01T01:53:44.112Z,4.27
2018-10-01T01:56:12.099Z,4.10
2018-10-01T01:58:40.872Z,4.00
2018-10-01T02:01:09.027Z,4.30
2018-10-01T02:03:37.159Z,4.03
2018-10-01T02:06:05.416Z,4.30
2018-10-01T02:08:33.656Z,3.83
2018-10-01T02:11:01.718Z,3.60
2018-10-01T02:13:29.781Z,4.57
2018-10-01T02:15:57.955Z,4.10
2018-10-01T02:18:26.152Z,3.90
2018-10-01T02:20:54.298Z,3.90
2018-10-01T02:23:23.045Z,3.93
2018-10-01T02:25:51.907Z,4.13
2018-10-01T02:28:20.080Z,3.80
2018-10-01T02:30:48.366Z,4.70
2018-10-01T02:33:16.537Z,3.90
2018-10-01T02:35:44.605Z,3.77
2018-10-01T02:38:12.684Z,4.00
2018-10-01T02:40:40.922Z,3.93
2018-10-01T02:43:09.213Z,3.63
2018-10-01T02:45:37.444Z,3.57
2018-10-01T02:48:05.882Z,3.57
2018-10-01T02:50:34.153Z,3.30
2018-10-01T02:53:07.874Z,3.17
2018-10-01T02:55:35.928Z,3.03
2018-10-01T02:58:04.201Z,3.60
2018-10-01T03:00:32.310Z,3.33
2018-10-01T03:03:00.440Z,3.23
2018-10-01T03:05:28.663Z,3.60
2018-10-01T03:07:56.943Z,3.20
2018-10-01T03:10:25.729Z,3.60
2018-10-01T03:12:53.916Z,3.23
2018-10-01T03:15:22.044Z,2.97
2018-10-01T03:17:50.140Z,2.77
2018-10-01T03:20:19.001Z,2.90
2018-10-01T03:22:47.850Z,3.03
2018-10-01T03:25:20.917Z,2.80
2018-10-01T03:27:49.173Z,3.10
2018-10-01T03:30:17.439Z,2.90
2018-10-01T03:32:45.691Z,3.27
2018-10-01T03:35:13.908Z,3.37
2018-10-01T03:37:42.091Z,3.30
2018-10-01T03:40:10.371Z,3.30
2018-10-01T03:42:38.495Z,3.27
2018-10-01T03:45:06.710Z,3.37
2018-10-01T03:47:34.773Z,3.00
2018-10-01T03:50:02.946Z,3.23
2018-10-01T03:52:31.101Z,3.30
2018-10-01T03:54:59.194Z,3.20
2018-10-01T03:57:27.604Z,3.13
2018-10-01T03:59:55.655Z,3.47
2018-10-01T04:02:24.050Z,3.60
2018-10-01T04:04:52.309Z,3.17
2018-10-01T04:07:20.482Z,3.20
2018-10-01T04:09:48.644Z,3.47
2018-10-01T04:12:16.738Z,3.73
2018-10-01T04:14:44.890Z,3.50
2018-10-01T04:17:13.066Z,3.50
2018-10-01T04:19:41.294Z,3.63
2018-10-01T04:22:09.414Z,3.10
2018-10-01T04:24:37.577Z,3.87
2018-10-01T04:27:06.608Z,3.40
2018-10-01T04:29:34.801Z,3.47
2018-10-01T04:32:03.069Z,3.60
2018-10-01T04:34:31.403Z,3.90
2018-10-01T04:36:59.598Z,4.57
2018-10-01T04:39:27.668Z,3.73
2018-10-01T04:41:55.720Z,3.93
2018-10-01T04:44:23.796Z,3.70
2018-10-01T04:46:52.130Z,3.87
2018-10-01T04:49:20.202Z,3.90
2018-10-01T04:51:48.381Z,4.20
2018-10-01T04:54:16.512Z,3.90
2018-10-01T04:56:44.635Z,3.83
2018-10-01T04:59:12.665Z,4.03
2018-10-01T05:01:41.009Z,4.23
2018-10-01T05:04:10.007Z,3.93
2018-10-01T05:06:38.326Z,4.53
2018-10-01T05:09:08.622Z,4.67
2018-10-01T05:11:36.824Z,4.43
2018-10-01T05:14:05.083Z,4.20
2018-10-01T05:16:33.334Z,4.40
2018-10-01T05:19:01.498Z,4.70
2018-10-01T05:21:29.661Z,4.50
2018-10-01T05:23:57.785Z,4.30
2018-10-01T05:26:25.987Z,4.10
2018-10-01T05:28:54.220Z,4.67
2018-10-01T05:31:22.457Z,6.07
2018-10-01T05:33:50.494Z,6.53
2018-10-01T05:36:18.705Z,5.03
2018-10-01T05:38:46.985Z,4.87
2018-10-01T05:41:15.180Z,5.40
2018-10-01T05:43:43.212Z,4.93
2018-10-01T05:46:11.364Z,4.43
2018-10-01T05:48:39.564Z,5.03
2018-10-01T05:51:07.628Z,5.40
2018-10-01T05:53:35.681Z,5.30
2018-10-01T05:56:27.200Z,5.00
2018-10-01T05:58:55.420Z,4.90
2018-10-01T06:01:23.616Z,4.73
2018-10-01T06:03:51.727Z,5.63
2018-10-01T06:06:19.893Z,5.60
2018-10-01T06:08:48.282Z,5.10
2018-10-01T06:11:16.385Z,4.97
2018-10-01T06:13:44.573Z,4.73
2018-10-01T06:16:12.685Z,5.30
2018-10-01T06:18:40.856Z,5.87
2018-10-01T06:21:09.290Z,5.40
2018-10-01T06:23:37.503Z,5.40
2018-10-01T06:26:05.583Z,5.27
2018-10-01T06:28:33.693Z,5.23
2018-10-01T06:31:02.013Z,5.73
2018-10-01T06:33:30.266Z,5.70
2018-10-01T06:35:58.347Z,5.47
2018-10-01T06:38:26.601Z,5.67
2018-10-01T06:40:54.707Z,5.57
2018-10-01T06:43:22.813Z,5.20
2018-10-01T06:45:50.954Z,5.20
2018-10-01T06:48:19.170Z,5.23
2018-10-01T06:50:47.289Z,5.90
2018-10-01T06:53:15.469Z,5.43
2018-10-01T06:55:43.673Z,5.60
2018-10-01T06:58:11.820Z,5.47
2018-10-01T07:00:39.900Z,5.70
2018-10-01T07:03:08.040Z,5.53
2018-10-01T07:05:36.395Z,5.60
2018-10-01T07:08:04.465Z,7.87
2018-10-01T07:10:33.298Z,6.50
2018-10-01T07:13:02.093Z,5.70
2018-10-01T07:15:30.268Z,6.03
2018-10-01T07:17:58.476Z,6.00
2018-10-01T07:20:26.628Z,6.20
2018-10-01T07:22:54.864Z,6.33
2018-10-01T07:25:23.068Z,6.03
2018-10-01T07:27:51.244Z,5.53
2018-10-01T07:30:19.474Z,5.57
2018-10-01T07:32:47.517Z,5.97
2018-10-01T07:35:15.610Z,5.97
2018-10-01T07:37:43.740Z,5.33
2018-10-01T07:40:11.849Z,5.33
2018-10-01T07:42:39.867Z,5.50
2018-10-01T07:45:08.783Z,5.67
2018-10-01T07:47:36.777Z,5.97
2018-10-01T07:50:06.032Z,5.97
2018-10-01T07:52:34.797Z,5.90
2018-10-01T07:55:03.426Z,5.67
2018-10-01T07:57:31.638Z,6.70
2018-10-01T07:59:59.783Z,5.30
2018-10-01T08:02:27.788Z,6.03
2018-10-01T08:04:56.082Z,6.27
2018-10-01T08:07:24.200Z,6.00
2018-10-01T08:09:52.561Z,6.27
2018-10-01T08:12:20.756Z,7.63
2018-10-01T08:14:49.179Z,5.90
2018-10-01T08:17:17.378Z,5.87
2018-10-01T08:19:45.559Z,6.33
2018-10-01T08:22:13.761Z,6.10
2018-10-01T08:24:42.320Z,5.70
2018-10-01T08:27:11.311Z,6.43
2018-10-01T08:29:39.621Z,6.00
2018-10-01T08:32:07.866Z,6.00
2018-10-01T08:34:36.349Z,5.57
2018-10-01T08:37:04.482Z,5.70
2018-10-01T08:39:32.550Z,5.97
2018-10-01T08:42:00.665Z,5.80
2018-10-01T08:44:28.864Z,6.27
2018-10-01T08:46:56.900Z,7.13
2018-10-01T08:49:34.139Z,6.33
2018-10-01T08:54:10.548Z,5.93
2018-10-01T08:56:38.856Z,6.33
2018-10-01T08:59:06.951Z,6.17
2018-10-01T09:01:35.129Z,5.90
2018-10-01T09:04:03.244Z,5.67
2018-10-01T09:06:31.525Z,6.20
2018-10-01T09:08:59.677Z,5.50
2018-10-01T09:11:27.862Z,5.23
2018-10-01T09:13:56.106Z,4.63
2018-10-01T09:16:24.292Z,5.07
2018-10-01T09:18:52.495Z,5.27
2018-10-01T09:21:20.769Z,4.40
2018-10-01T09:23:48.875Z,4.13
2018-10-01T09:26:17.082Z,4.13
2018-10-01T09:28:45.104Z,4.60
2018-10-01T09:31:13.295Z,4.43
2018-10-01T09:33:41.557Z,4.17
2018-10-01T09:36:09.672Z,3.73
2018-10-01T09:38:37.860Z,4.00
2018-10-01T09:41:06.039Z,3.93
2018-10-01T09:43:34.275Z,4.40
2018-10-01T09:46:02.404Z,3.87
2018-10-01T09:48:30.633Z,3.63
2018-10-01T09:50:58.896Z,3.90
2018-10-01T09:53:27.040Z,3.60
2018-10-01T09:55:55.183Z,3.17
2018-10-01T09:58:23.331Z,3.43
2018-10-01T10:00:57.048Z,4.40
2018-10-01T10:03:25.272Z,3.57
2018-10-01T10:05:53.365Z,3.97
2018-10-01T10:08:21.537Z,4.00
2018-10-01T10:10:50.064Z,3.70
2018-10-01T10:13:18.211Z,3.63
2018-10-01T10:15:46.353Z,3.53
2018-10-01T10:18:14.509Z,3.50
2018-10-01T10:20:43.169Z,3.87
2018-10-01T10:23:11.249Z,3.07
2018-10-01T10:25:39.481Z,3.20
2018-10-01T10:28:07.709Z,3.37
2018-10-01T10:30:35.901Z,3.23
2018-10-01T10:33:04.112Z,3.20
2018-10-01T10:35:32.589Z,3.20
2018-10-01T10:38:00.769Z,3.00
2018-10-01T10:40:29.129Z,2.73
2018-10-01T10:42:57.963Z,2.77
2018-10-01T10:45:31.088Z,2.27
2018-10-01T10:47:59.177Z,2.37
2018-10-01T10:50:27.368Z,2.10
2018-10-01T10:52:55.417Z,2.30
2018-10-01T10:55:23.622Z,1.93
2018-10-01T10:57:51.684Z,2.07
2018-10-01T11:00:19.856Z,1.97
2018-10-01T11:02:48.022Z,2.20
2018-10-01T11:05:16.084Z,2.50
2018-10-01T11:07:45.187Z,2.17
2018-10-01T11:10:13.310Z,1.80
2018-10-01T11:12:42.431Z,2.10
2018-10-01T11:15:10.926Z,2.17
2018-10-01T11:17:38.995Z,2.20
2018-10-01T11:20:07.874Z,2.10
2018-10-01T11:22:36.020Z,2.20
2018-10-01T11:25:18.014Z,2.23
2018-10-01T11:27:46.340Z,1.77
2018-10-01T11:30:14.929Z,2.30
2018-10-01T11:32:43.031Z,2.27
2018-10-01T11:35:11.347Z,2.00
2018-10-01T11:37:39.483Z,2.30
2018-10-01T11:40:07.736Z,1.80
2018-10-01T11:42:35.885Z,1.90
2018-10-01T11:45:04.332Z,2.07
2018-10-01T11:47:32.534Z,1.70
2018-10-01T11:50:00.665Z,1.80
2018-10-01T11:52:28.924Z,1.70
2018-10-01T11:54:57.096Z,1.70
2018-10-01T11:57:25.532Z,2.00
2018-10-01T11:59:53.570Z,1.70
2018-10-01T12:02:21.670Z,1.73
2018-10-01T12:04:49.844Z,2.50
2018-10-01T12:07:17.986Z,1.67
2018-10-01T12:09:46.220Z,2.00
2018-10-01T12:12:14.224Z,2.17
2018-10-01T12:14:42.499Z,1.93
2018-10-01T12:17:10.725Z,2.03
2018-10-01T12:19:39.802Z,2.40
2018-10-01T12:22:08.199Z,2.27
2018-10-01T12:24:36.282Z,2.10
2018-10-01T12:27:04.501Z,2.00
2018-10-01T12:29:32.664Z,2.00
2018-10-01T12:32:00.730Z,2.80
2018-10-01T12:34:28.828Z,2.30
2018-10-01T12:36:56.885Z,2.13
2018-10-01T12:39:25.040Z,2.37
2018-10-01T12:41:53.201Z,1.77
2018-10-01T12:44:21.374Z,2.57
2018-10-01T12:46:49.554Z,2.57
2018-10-01T12:49:17.608Z,2.50
2018-10-01T12:51:45.938Z,2.10
2018-10-01T12:54:14.055Z,2.10
2018-10-01T12:56:42.278Z,2.00
2018-10-01T12:59:10.349Z,2.10
2018-10-01T13:01:38.446Z,2.13
2018-10-01T13:04:06.648Z,1.90
2018-10-01T13:06:34.915Z,1.77
2018-10-01T13:09:03.610Z,1.90
2018-10-01T13:11:31.766Z,1.90
2018-10-01T13:13:59.871Z,1.80
2018-10-01T13:16:27.995Z,1.63
2018-10-01T13:18:56.157Z,1.60
2018-10-01T13:21:24.366Z,1.57
2018-10-01T13:23:52.620Z,1.77
2018-10-01T13:26:20.928Z,2.07
2018-10-01T13:28:48.992Z,1.47
2018-10-01T13:31:17.124Z,1.60
2018-10-01T13:33:45.205Z,1.43
2018-10-01T13:36:13.382Z,1.60
2018-10-01T13:38:41.537Z,1.60
2018-10-01T13:41:09.779Z,1.60
2018-10-01T13:43:37.885Z,1.77
2018-10-01T13:46:05.959Z,1.40
2018-10-01T13:48:34.122Z,1.70
2018-10-01T13:51:02.302Z,1.50
2018-10-01T13:53:30.452Z,1.30
2018-10-01T13:55:58.572Z,1.50
2018-10-01T13:58:26.893Z,1.70
2018-10-01T14:00:55.085Z,1.50
2018-10-01T14:03:23.254Z,1.70
2018-10-01T14:05:51.465Z,1.53
2018-10-01T14:08:19.616Z,1.60
2018-10-01T14:10:47.833Z,1.50
2018-10-01T14:13:15.962Z,1.50
2018-10-01T14:15:44.622Z,1.70
2018-10-01T14:18:12.783Z,1.40
2018-10-01T14:20:41.288Z,1.80
2018-10-01T14:23:09.490Z,1.60
2018-10-01T14:25:37.696Z,1.70
2018-10-01T14:28:05.657Z,1.80
2018-10-01T14:30:33.779Z,2.00
2018-10-01T14:33:01.861Z,1.50
2018-10-01T14:35:30.060Z,1.80
2018-10-01T14:37:58.173Z,1.40
2018-10-01T14:40:26.365Z,1.40
2018-10-01T14:42:54.488Z,1.50
2018-10-01T14:45:22.688Z,1.77
2018-10-01T14:47:50.794Z,1.67
2018-10-01T14:50:18.931Z,2.37
2018-10-01T14:52:47.078Z,2.10
2018-10-01T14:55:15.956Z,1.63
2018-10-01T14:57:44.105Z,1.83
2018-10-01T15:00:12.337Z,1.80
2018-10-01T15:02:40.497Z,1.57
2018-10-01T15:05:08.833Z,1.60
2018-10-01T15:07:36.897Z,1.60
2018-10-01T15:10:05.218Z,1.63
2018-10-01T15:12:33.414Z,1.70
2018-10-01T15:15:01.724Z,1.90
2018-10-01T15:17:29.854Z,1.70
2018-10-01T15:19:58.194Z,1.57
2018-10-01T15:22:26.522Z,1.33
2018-10-01T15:24:54.706Z,1.83
2018-10-01T15:27:22.912Z,1.47
2018-10-01T15:29:51.034Z,1.40
2018-10-01T15:32:19.190Z,1.40
2018-10-01T15:34:47.375Z,0.93
2018-10-01T15:37:15.459Z,1.17
2018-10-01T15:39:43.639Z,1.37
2018-10-01T15:42:11.852Z,1.20
2018-10-01T15:44:39.819Z,1.33
2018-10-01T15:47:07.832Z,1.10
2018-10-01T15:49:36.074Z,0.93
2018-10-01T15:52:04.345Z,1.40
2018-10-01T15:54:32.598Z,1.00
2018-10-01T15:57:00.807Z,1.40
2018-10-01T15:59:28.924Z,1.40
2018-10-01T16:01:57.086Z,1.80
2018-10-01T16:04:25.312Z,1.40
2018-10-01T16:06:53.532Z,1.90
2018-10-01T16:09:21.782Z,1.37
2018-10-01T16:11:49.885Z,1.40
2018-10-01T16:14:18.024Z,1.70
2018-10-01T16:16:46.760Z,1.30
2018-10-01T16:19:15.066Z,1.10
2018-10-01T16:21:43.269Z,1.00
2018-10-01T16:24:11.322Z,1.20
2018-10-01T16:26:39.575Z,1.03
2018-10-01T16:29:07.866Z,0.80
2018-10-01T16:31:36.185Z,0.50
2018-10-01T16:34:04.352Z,1.17
2018-10-01T16:36:32.644Z,1.17
2018-10-01T16:39:00.894Z,1.07
2018-10-01T16:41:29.123Z,0.70
2018-10-01T16:43:57.383Z,0.90
2018-10-01T16:46:25.543Z,0.87
2018-10-01T16:48:53.735Z,0.73
2018-10-01T16:51:21.942Z,1.00
2018-10-01T16:53:52.927Z,0.80
2018-10-01T16:56:21.226Z,0.80
2018-10-01T16:58:49.392Z,1.10
2018-10-01T17:01:17.497Z,1.00
2018-10-01T17:03:45.888Z,1.10
2018-10-01T17:06:14.107Z,1.17
2018-10-01T17:08:42.310Z,0.90
2018-10-01T17:11:10.587Z,0.90
2018-10-01T17:13:39.441Z,1.00
2018-10-01T17:16:07.707Z,1.80
2018-10-01T17:18:36.418Z,1.87
2018-10-01T17:21:04.643Z,1.83
2018-10-01T17:23:32.754Z,1.17
2018-10-01T17:26:01.085Z,1.47
2018-10-01T17:28:29.324Z,1.87
2018-10-01T17:30:57.608Z,2.20
2018-10-01T17:33:25.943Z,2.00
2018-10-01T17:35:54.265Z,1.33
2018-10-01T17:38:23.474Z,1.70
2018-10-01T17:40:51.858Z,1.70
2018-10-01T17:43:20.091Z,1.27
2018-10-01T17:45:48.397Z,1.53
2018-10-01T17:48:16.717Z,2.40
2018-10-01T17:50:44.936Z,2.40
2018-10-01T17:53:13.137Z,2.70
2018-10-01T17:55:41.440Z,1.20
2018-10-01T17:58:09.737Z,1.70
2018-10-01T18:00:38.085Z,1.80
2018-10-01T18:03:06.599Z,4.43
2018-10-01T18:05:34.853Z,2.17
2018-10-01T18:08:02.999Z,1.90
2018-10-01T18:10:31.169Z,1.83
2018-10-01T18:12:59.320Z,1.90
2018-10-01T18:15:27.505Z,2.60
2018-10-01T18:17:55.746Z,3.10
2018-10-01T18:20:23.926Z,4.80
2018-10-01T18:22:52.893Z,5.13
2018-10-01T18:25:21.073Z,4.83
2018-10-01T18:27:49.221Z,3.67
2018-10-01T18:30:17.473Z,3.63
2018-10-01T18:32:45.760Z,3.70
2018-10-01T18:35:14.012Z,3.53
2018-10-01T18:37:42.403Z,3.43
2018-10-01T18:40:12.829Z,3.03
2018-10-01T18:42:41.097Z,2.53
2018-10-01T18:45:09.289Z,3.10
2018-10-01T18:47:37.443Z,3.00
2018-10-01T18:50:05.822Z,3.20
2018-10-01T18:52:34.053Z,3.67
2018-10-01T18:55:02.146Z,3.77
2018-10-01T18:57:30.434Z,2.90
2018-10-01T18:59:59.726Z,9.47
2018-10-01T19:02:27.785Z,5.00
2018-10-01T19:04:56.005Z,3.83
2018-10-01T19:07:24.171Z,3.50
2018-10-01T19:09:53.207Z,4.10
2018-10-01T19:12:22.049Z,3.17
2018-10-01T19:14:50.105Z,3.40
2018-10-01T19:17:18.268Z,3.57
2018-10-01T19:19:46.474Z,3.67
2018-10-01T19:22:14.665Z,2.73
2018-10-01T19:24:42.746Z,2.70
2018-10-01T19:27:10.882Z,2.40
2018-10-01T19:29:39.067Z,2.43
2018-10-01T19:32:07.408Z,2.33
2018-10-01T19:34:35.502Z,2.17
2018-10-01T19:37:03.626Z,2.07
2018-10-01T19:39:31.733Z,2.30
2018-10-01T19:41:59.801Z,4.50
2018-10-01T19:44:28.034Z,2.37
2018-10-01T19:46:56.229Z,2.30
2018-10-01T19:49:24.341Z,2.20
2018-10-01T19:51:52.588Z,2.30
2018-10-01T19:54:20.841Z,2.90
2018-10-01T19:56:49.102Z,3.33
2018-10-01T19:59:17.342Z,3.43
2018-10-01T20:01:45.431Z,4.07
2018-10-01T20:04:13.648Z,3.90
2018-10-01T20:06:41.810Z,3.10
2018-10-01T20:09:11.455Z,2.87
2018-10-01T20:11:39.661Z,3.10
2018-10-01T20:14:07.841Z,3.87
2018-10-01T20:16:36.312Z,3.07
2018-10-01T20:19:04.537Z,3.00
2018-10-01T20:21:32.660Z,3.40
2018-10-01T20:24:00.760Z,3.33
2018-10-01T20:26:28.877Z,2.90
2018-10-01T20:28:57.236Z,3.47
2018-10-01T20:31:25.071Z,3.73
2018-10-01T20:33:53.390Z,4.40
2018-10-01T20:36:21.726Z,4.90
2018-10-01T20:38:49.736Z,5.87
2018-10-01T20:41:18.202Z,6.00
2018-10-01T20:43:47.086Z,10.17
2018-10-01T20:46:15.262Z,7.57
2018-10-01T20:48:43.522Z,4.03
2018-10-01T20:51:11.734Z,2.60
2018-10-01T20:53:39.951Z,2.00
2018-10-01T20:56:08.033Z,1.90
2018-10-01T20:58:36.167Z,3.53
2018-10-01T21:01:04.340Z,2.83
2018-10-01T21:03:32.510Z,2.77
2018-10-01T21:06:00.678Z,2.80
2018-10-01T21:08:28.868Z,2.27
2018-10-01T21:10:57.113Z,2.80
2018-10-01T21:13:25.347Z,2.00
2018-10-01T21:15:53.592Z,2.07
2018-10-01T21:18:21.805Z,1.90
2018-10-01T21:20:50.101Z,2.43
2018-10-01T21:23:18.325Z,2.37
2018-10-01T21:25:46.531Z,2.53
2018-10-01T21:28:14.564Z,2.77
2018-10-01T21:30:42.827Z,2.50
2018-10-01T21:33:10.951Z,2.60
2018-10-01T21:35:39.168Z,1.77
2018-10-01T21:38:07.313Z,2.40
2018-10-01T21:40:35.426Z,1.63
2018-10-01T21:43:03.554Z,1.73
2018-10-01T21:45:31.689Z,1.60
2018-10-01T21:47:59.883Z,2.20
2018-10-01T21:50:27.862Z,2.53
2018-10-01T21:52:56.114Z,1.97
2018-10-01T21:55:24.194Z,1.80
2018-10-01T21:57:52.367Z,1.57
2018-10-01T22:00:20.499Z,1.90
2018-10-01T22:02:48.561Z,2.07
2018-10-01T22:05:16.785Z,1.83
2018-10-01T22:07:44.982Z,1.60
2018-10-01T22:10:13.220Z,1.60
2018-10-01T22:12:41.339Z,1.53
2018-10-01T22:15:09.645Z,1.67
2018-10-01T22:17:38.333Z,2.10
2018-10-01T22:20:06.387Z,1.80
2018-10-01T22:22:35.315Z,1.80
2018-10-01T22:25:03.598Z,1.57
2018-10-01T22:27:31.869Z,1.60
2018-10-01T22:30:00.054Z,1.43
2018-10-01T22:32:28.156Z,1.90
2018-10-01T22:34:56.227Z,2.10
2018-10-01T22:37:24.352Z,1.73
2018-10-01T22:39:52.521Z,1.60
2018-10-01T22:42:20.569Z,1.80
2018-10-01T22:44:48.884Z,2.13
2018-10-01T22:47:16.986Z,2.00
2018-10-01T22:49:45.237Z,1.80
2018-10-01T22:52:13.346Z,2.33
2018-10-01T22:54:41.541Z,2.53
2018-10-01T22:57:09.667Z,2.47
2018-10-01T22:59:37.958Z,2.23
2018-10-01T23:02:06.133Z,2.10
2018-10-01T23:04:34.415Z,2.37
2018-10-01T23:07:02.668Z,2.10
2018-10-01T23:09:30.843Z,1.80
2018-10-01T23:11:59.183Z,1.60
2018-10-01T23:14:27.987Z,1.90
2018-10-01T23:16:56.256Z,2.13
2018-10-01T23:19:24.364Z,2.40
2018-10-01T23:21:52.463Z,2.40
2018-10-01T23:24:20.620Z,2.50
2018-10-01T23:26:48.879Z,2.03
2018-10-01T23:29:17.559Z,2.27
2018-10-01T23:31:45.868Z,2.57
2018-10-01T23:34:14.019Z,2.73
2018-10-01T23:36:42.255Z,3.27
2018-10-01T23:39:10.316Z,3.50
2018-10-01T23:41:38.368Z,2.80
2018-10-01T23:44:06.496Z,2.70
2018-10-01T23:46:34.652Z,2.80
2018-10-01T23:49:02.708Z,2.73
2018-10-01T23:51:30.757Z,2.60
2018-10-01T23:53:59.015Z,2.43
2018-10-01T23:56:27.220Z,3.10
2018-10-01T23:58:55.624Z,2.93
